aviador You're here:

TFFF Decoded Metar

FORT-DE-FRANCE in ANTILLES
Report Time2017-11-20 22:30:00
UTC Time2017-11-20 22:52:18
Flight Rules vfr VFR
Wind100° at 10 kt
W.Decomp.*RWY 10: 9.7 kt HW 2.6 kt RCW
W.Rank100° ranks 6
Current wind is above 100° avg. (9.0)
Visibility9999 m
Phenomena:N/A
Clouds:Few 021 Hf
Expected CloudBase > 1,600 ft AGL from Temp-Dew spread
CeilingNone
Temp27°C (ISA +12)
Dew Point23°C (79% RH)
Heat Index29.6°C
QNH1011 hPa
Density Alt1,841 ft
Elevation16 ft
Report Wrong Elevation
Raw Report
METAR TFFF 202230Z AUTO 10010KT 9999 FEW021 27/23 Q1011 TEMPO FEW015TCU=

Extra information for TFFF:More info

Metar Taf Metar & Taf Last 4 Metars F.Rules Stats Wind Profile Meteogram Temp Stats Airport Information Weather charts Add Link Nearby VenuesMetar ALERT Operation Metar Decoded Social comments